createdAt,value
2023-02-14T00:01:17.632Z,21.34
2023-02-14T00:02:17.703Z,21.33
2023-02-14T00:03:17.671Z,21.33
2023-02-14T00:04:18.093Z,21.35
2023-02-14T00:08:17.861Z,21.34
2023-02-14T00:10:17.952Z,21.34
2023-02-14T00:11:18.030Z,21.34
2023-02-14T00:12:18.090Z,21.34
2023-02-14T00:13:18.151Z,21.33
2023-02-14T00:14:18.191Z,21.33
2023-02-14T00:15:18.258Z,21.33
2023-02-14T00:16:18.315Z,21.35
2023-02-14T00:17:18.350Z,21.34
2023-02-14T00:18:19.711Z,21.35
2023-02-14T00:19:18.367Z,21.34
2023-02-14T00:20:18.365Z,21.33
2023-02-14T00:21:18.374Z,21.33
2023-02-14T00:22:18.404Z,21.33
2023-02-14T00:23:18.407Z,21.32
2023-02-14T00:24:18.397Z,21.34
2023-02-14T00:25:18.435Z,21.31
2023-02-14T00:26:18.419Z,21.32
2023-02-14T00:27:18.423Z,21.31
2023-02-14T00:28:18.427Z,21.33
2023-02-14T00:29:18.493Z,21.33
2023-02-14T00:30:18.557Z,21.32
2023-02-14T00:31:18.864Z,21.33
2023-02-14T00:32:18.630Z,21.34
2023-02-14T00:33:18.689Z,21.31
2023-02-14T00:34:18.737Z,21.33
2023-02-14T00:35:18.757Z,21.31
2023-02-14T00:36:18.788Z,21.32
2023-02-14T00:37:18.768Z,21.33
2023-02-14T00:38:18.728Z,21.32
2023-02-14T00:39:18.754Z,21.33
2023-02-14T00:40:18.785Z,21.33
2023-02-14T00:41:18.763Z,21.33
2023-02-14T00:42:18.813Z,21.32
2023-02-14T00:43:18.809Z,21.33
2023-02-14T00:44:18.817Z,21.33
2023-02-14T00:45:18.846Z,21.34
2023-02-14T00:46:18.892Z,21.33
2023-02-14T00:48:19.000Z,21.34
2023-02-14T00:49:19.017Z,21.33
2023-02-14T00:50:19.014Z,21.33
2023-02-14T00:51:19.019Z,21.32
2023-02-14T00:52:19.028Z,21.32
2023-02-14T00:53:19.038Z,21.34
2023-02-14T00:54:19.166Z,21.33
2023-02-14T00:55:19.117Z,21.32
2023-02-14T00:56:19.123Z,21.31
2023-02-14T00:57:19.197Z,21.33
2023-02-14T00:58:19.253Z,21.32
2023-02-14T00:59:19.241Z,21.31
2023-02-14T01:00:19.225Z,21.32
2023-02-14T01:01:19.356Z,21.31
2023-02-14T01:02:19.259Z,21.32
2023-02-14T01:03:19.272Z,21.32
2023-02-14T01:04:19.363Z,21.33
2023-02-14T01:05:19.365Z,21.31
2023-02-14T01:06:19.366Z,21.32
2023-02-14T01:07:19.367Z,21.31
2023-02-14T01:08:19.378Z,21.31
2023-02-14T01:09:19.350Z,21.31
2023-02-14T01:10:19.387Z,21.32
2023-02-14T01:11:19.363Z,21.32
2023-02-14T01:12:19.362Z,21.31
2023-02-14T01:13:19.418Z,21.32
2023-02-14T01:14:19.394Z,21.32
2023-02-14T01:15:19.413Z,21.32
2023-02-14T01:16:19.419Z,21.32
2023-02-14T01:17:19.438Z,21.32
2023-02-14T01:18:19.443Z,21.31
2023-02-14T01:19:19.447Z,21.32
2023-02-14T03:29:26.056Z,21.29
2023-02-14T03:30:26.134Z,21.27
2023-02-14T03:31:26.203Z,21.29
2023-02-14T03:32:26.114Z,21.28
2023-02-14T03:33:26.142Z,21.28
2023-02-14T03:34:26.153Z,21.29
2023-02-14T03:35:26.174Z,21.29
2023-02-14T03:36:26.167Z,21.28
2023-02-14T03:37:26.210Z,21.27
2023-02-14T03:38:26.193Z,21.27
2023-02-14T03:39:26.252Z,21.27
2023-02-14T03:40:26.275Z,21.28
2023-02-14T03:41:26.305Z,21.29
2023-02-14T03:42:26.315Z,21.28
2023-02-14T03:43:26.354Z,21.29
2023-02-14T03:44:26.426Z,21.28
2023-02-14T03:45:26.459Z,21.29
2023-02-14T03:46:26.578Z,21.29
2023-02-14T03:47:26.590Z,21.29
2023-02-14T03:48:26.635Z,21.29
2023-02-14T03:49:26.720Z,21.28
2023-02-14T03:50:26.749Z,21.28
2023-02-14T03:51:26.791Z,21.28
2023-02-14T03:52:26.894Z,21.29
2023-02-14T03:53:26.886Z,21.28
2023-02-14T03:54:26.967Z,21.28
2023-02-14T03:55:27.007Z,21.28
2023-02-14T03:56:27.060Z,21.28
2023-02-14T03:57:27.134Z,21.26
2023-02-14T03:58:27.203Z,21.28
2023-02-14T03:59:27.252Z,21.30
2023-02-14T04:00:27.294Z,21.29
2023-02-14T04:01:27.393Z,21.31
2023-02-14T04:02:27.419Z,21.29
2023-02-14T04:03:27.553Z,21.29
2023-02-14T04:04:27.523Z,21.29
2023-02-14T04:05:27.487Z,21.27
2023-02-14T04:06:27.513Z,21.29
2023-02-14T04:13:27.821Z,21.30
2023-02-14T04:50:28.762Z,21.29
2023-02-14T05:40:30.944Z,21.27
2023-02-14T05:41:30.939Z,21.28
2023-02-14T05:42:30.987Z,21.28
2023-02-14T05:43:31.021Z,21.29
2023-02-14T06:01:50.328Z,21.32
2023-02-14T06:02:50.277Z,21.30
2023-02-14T06:03:50.306Z,21.30
2023-02-14T06:04:50.291Z,21.28
2023-02-14T06:05:50.229Z,21.28
2023-02-14T06:06:50.262Z,21.28
2023-02-14T06:07:50.237Z,21.27
2023-02-14T06:08:50.228Z,21.28
2023-02-14T06:09:50.207Z,21.26
2023-02-14T06:10:50.201Z,21.27
2023-02-14T06:11:50.206Z,21.27
2023-02-14T06:12:50.195Z,21.29
2023-02-14T06:13:50.165Z,21.28
2023-02-14T06:14:50.185Z,21.27
2023-02-14T06:15:50.166Z,21.26
2023-02-14T06:16:50.218Z,21.29
2023-02-14T06:17:50.168Z,21.26
2023-02-14T06:18:50.167Z,21.27
2023-02-14T06:19:50.123Z,21.27
2023-02-14T06:20:50.141Z,21.28
2023-02-14T06:21:50.162Z,21.28
2023-02-14T06:22:50.091Z,21.26
2023-02-14T06:23:50.124Z,21.27
2023-02-14T06:24:50.144Z,21.27
2023-02-14T06:25:50.118Z,21.27
2023-02-14T06:26:50.082Z,21.27
2023-02-14T06:27:50.098Z,21.27
2023-02-14T06:28:50.100Z,21.28
2023-02-14T06:29:50.095Z,21.27
2023-02-14T06:30:50.171Z,21.27
2023-02-14T06:31:50.176Z,21.28
2023-02-14T06:32:50.094Z,21.25
2023-02-14T06:33:50.089Z,21.28
2023-02-14T06:34:50.030Z,21.26
2023-02-14T06:35:50.047Z,21.26
2023-02-14T06:36:50.004Z,21.28
2023-02-14T06:37:50.021Z,21.28
2023-02-14T06:38:50.022Z,21.26
2023-02-14T06:39:50.011Z,21.28
2023-02-14T06:40:50.016Z,21.24
2023-02-14T06:41:49.981Z,21.26
2023-02-14T06:42:50.005Z,21.26
2023-02-14T06:43:50.005Z,21.27
2023-02-14T06:44:49.953Z,21.24
2023-02-14T06:45:57.002Z,21.26
2023-02-14T06:46:49.963Z,21.28
2023-02-14T06:47:49.973Z,21.26
2023-02-14T06:48:49.988Z,21.27
2023-02-14T06:49:49.935Z,21.28
2023-02-14T06:50:49.954Z,21.25
2023-02-14T06:51:49.927Z,21.26
2023-02-14T06:52:49.940Z,21.26
2023-02-14T06:53:49.921Z,21.27
2023-02-14T06:54:49.920Z,21.26
2023-02-14T06:55:49.920Z,21.26
2023-02-14T06:56:49.898Z,21.26
2023-02-14T06:57:49.896Z,21.26
2023-02-14T06:58:49.861Z,21.26
2023-02-14T06:59:49.863Z,21.26
2023-02-14T07:00:49.876Z,21.27
2023-02-14T07:01:49.961Z,21.24
2023-02-14T07:02:49.888Z,21.22
2023-02-14T07:03:49.884Z,21.24
2023-02-14T07:04:49.845Z,21.25
2023-02-14T07:05:49.841Z,21.27
2023-02-14T07:06:49.824Z,21.27
2023-02-14T07:07:49.797Z,21.38
2023-02-14T07:08:49.802Z,21.51
2023-02-14T07:09:49.814Z,21.87
2023-02-14T07:10:49.818Z,22.13
2023-02-14T07:11:49.800Z,22.10
2023-02-14T07:12:49.800Z,22.15
2023-02-14T07:13:49.811Z,22.21
2023-02-14T07:14:49.811Z,22.18
2023-02-14T07:15:49.869Z,22.25
2023-02-14T07:16:49.929Z,22.51
2023-02-14T07:17:49.970Z,22.55
2023-02-14T07:18:50.043Z,22.51
2023-02-14T07:19:50.086Z,22.52
2023-02-14T07:20:50.151Z,22.61
2023-02-14T07:21:50.201Z,22.62
2023-02-14T07:22:50.275Z,22.78
2023-02-14T07:23:50.305Z,22.94
2023-02-14T07:24:50.384Z,24.33
2023-02-14T07:25:50.438Z,24.07
2023-02-14T07:26:50.498Z,24.52
2023-02-14T07:27:50.502Z,25.55
2023-02-14T07:28:50.513Z,24.99
2023-02-14T07:29:50.620Z,24.90
2023-02-14T07:30:50.662Z,24.88
2023-02-14T07:31:50.747Z,24.88
2023-02-14T07:32:50.606Z,24.88
2023-02-14T07:33:50.592Z,24.87
2023-02-14T07:34:50.653Z,24.86
2023-02-14T07:35:50.597Z,24.84
2023-02-14T07:36:50.597Z,24.84
2023-02-14T07:37:50.596Z,24.83
2023-02-14T07:38:50.684Z,24.83
2023-02-14T07:39:50.744Z,24.78
2023-02-14T07:40:50.806Z,24.78
2023-02-14T07:41:50.837Z,24.76
2023-02-14T07:42:50.927Z,24.74
2023-02-14T07:43:50.953Z,24.79
2023-02-14T07:44:51.083Z,24.83
2023-02-14T07:45:51.114Z,24.83
2023-02-14T07:46:51.986Z,24.86
2023-02-14T07:47:51.191Z,24.96
2023-02-14T07:48:51.261Z,25.01
2023-02-14T07:49:51.302Z,24.98
2023-02-14T07:50:51.388Z,25.14
2023-02-14T07:51:51.341Z,25.20
2023-02-14T07:52:51.436Z,25.16
2023-02-14T07:53:51.646Z,25.13
2023-02-14T07:54:51.511Z,25.11
2023-02-14T07:55:51.518Z,25.06
2023-02-14T07:56:51.553Z,25.14
2023-02-14T07:57:51.581Z,25.06
2023-02-14T07:58:51.642Z,24.98
2023-02-14T07:59:51.642Z,24.87
2023-02-14T08:00:51.699Z,24.79
2023-02-14T08:01:51.798Z,24.67
2023-02-14T08:02:51.783Z,24.73
2023-02-14T08:03:51.788Z,24.64
2023-02-14T08:04:51.922Z,24.58
2023-02-14T08:05:51.844Z,24.62
2023-02-14T08:06:51.864Z,24.54
2023-02-14T08:07:51.931Z,24.49
2023-02-14T08:08:51.963Z,24.46
2023-02-14T08:09:52.029Z,24.48
2023-02-14T08:10:52.029Z,24.52
2023-02-14T08:11:52.089Z,24.58
2023-02-14T08:12:52.108Z,24.77
2023-02-14T08:13:52.144Z,24.80
2023-02-14T08:14:52.152Z,24.69
2023-02-14T08:15:52.289Z,24.70
2023-02-14T08:16:52.209Z,24.72
2023-02-14T08:17:52.205Z,24.65
2023-02-14T08:18:52.230Z,24.63
2023-02-14T08:19:52.545Z,24.66
2023-02-14T08:20:52.249Z,24.70
2023-02-14T08:21:52.301Z,24.69
2023-02-14T08:22:52.311Z,24.75
2023-02-14T08:23:52.320Z,24.77
2023-02-14T08:24:52.367Z,24.75
2023-02-14T08:25:52.437Z,24.73
2023-02-14T08:26:52.477Z,24.72
2023-02-14T08:27:52.545Z,24.68
2023-02-14T08:28:52.557Z,24.67
2023-02-14T08:29:52.617Z,24.68
2023-02-14T08:30:52.657Z,24.66
2023-02-14T08:31:52.847Z,24.63
2023-02-14T08:32:52.812Z,24.59
2023-02-14T08:33:52.802Z,24.59
2023-02-14T08:34:52.841Z,24.63
2023-02-14T08:35:52.878Z,24.65
2023-02-14T08:36:52.893Z,24.65
2023-02-14T08:37:52.929Z,24.69
2023-02-14T08:38:52.984Z,24.72
2023-02-14T08:39:53.039Z,24.72
2023-02-14T08:40:53.042Z,24.76
2023-02-14T08:41:53.101Z,24.79
2023-02-14T08:42:53.146Z,24.83
2023-02-14T08:43:53.169Z,24.87
2023-02-14T08:44:53.179Z,24.90
2023-02-14T08:45:53.239Z,24.97
2023-02-14T08:46:53.288Z,24.98
2023-02-14T08:47:53.304Z,25.03
2023-02-14T08:48:53.286Z,25.06
2023-02-14T08:49:53.311Z,25.07
2023-02-14T08:50:53.356Z,25.12
2023-02-14T08:51:53.380Z,25.16
2023-02-14T08:52:53.380Z,25.19
2023-02-14T08:53:53.445Z,25.27
2023-02-14T08:54:53.454Z,25.27
2023-02-14T08:55:53.464Z,25.33
2023-02-14T08:56:53.465Z,25.37
2023-02-14T08:57:53.520Z,25.38
2023-02-14T08:58:53.548Z,25.39
2023-02-14T08:59:53.544Z,25.42
2023-02-14T09:00:53.592Z,25.41
2023-02-14T09:01:53.557Z,25.45
2023-02-14T09:02:53.607Z,25.51
2023-02-14T09:03:53.721Z,25.53
2023-02-14T09:04:53.600Z,25.55
2023-02-14T09:05:53.631Z,25.56
2023-02-14T09:06:53.631Z,25.58
2023-02-14T09:07:53.667Z,25.61
2023-02-14T09:08:53.687Z,25.63
2023-02-14T09:09:53.709Z,25.65
2023-02-14T09:10:53.692Z,25.65
2023-02-14T09:11:53.696Z,25.66
2023-02-14T09:12:53.697Z,25.70
2023-02-14T09:13:53.716Z,25.72
2023-02-14T09:14:53.765Z,25.75
2023-02-14T09:15:53.747Z,25.80
2023-02-14T09:16:53.875Z,25.79
2023-02-14T09:17:53.774Z,25.81
2023-02-14T09:18:53.808Z,25.83
2023-02-14T09:19:53.826Z,25.85
2023-02-14T09:20:53.873Z,25.88
2023-02-14T09:21:53.881Z,25.89
2023-02-14T09:22:53.853Z,25.88
2023-02-14T09:23:53.840Z,25.91
2023-02-14T09:24:53.836Z,25.94
2023-02-14T09:25:53.826Z,25.94
2023-02-14T09:26:53.906Z,25.96
2023-02-14T09:27:53.927Z,25.94
2023-02-14T09:28:53.924Z,25.97
2023-02-14T09:29:53.966Z,25.97
2023-02-14T09:30:54.623Z,25.98
2023-02-14T09:31:54.106Z,25.99
2023-02-14T09:32:54.019Z,26.00
2023-02-14T09:33:53.981Z,25.99
2023-02-14T09:34:54.025Z,26.00
2023-02-14T09:35:54.035Z,25.99
2023-02-14T09:36:54.084Z,26.00
2023-02-14T09:37:54.138Z,25.99
2023-02-14T09:38:54.246Z,26.00
2023-02-14T09:39:54.337Z,25.98
2023-02-14T09:40:54.302Z,26.01
2023-02-14T09:41:54.394Z,26.01
2023-02-14T09:42:54.437Z,26.01
2023-02-14T09:43:54.473Z,26.03
2023-02-14T09:44:54.511Z,26.02
2023-02-14T09:45:54.603Z,26.02
2023-02-14T09:46:54.539Z,26.02
2023-02-14T09:47:54.502Z,26.04
2023-02-14T09:48:54.570Z,26.03
2023-02-14T09:49:54.585Z,26.01
2023-02-14T09:50:54.570Z,26.04
2023-02-14T09:51:54.584Z,26.01
2023-02-14T09:52:54.636Z,26.02
2023-02-14T09:53:54.651Z,26.02
2023-02-14T09:54:54.658Z,26.00
2023-02-14T09:55:54.700Z,26.02
2023-02-14T09:56:54.703Z,26.02
2023-02-14T09:57:54.704Z,26.03
2023-02-14T09:58:54.719Z,26.01
2023-02-14T09:59:54.724Z,26.01
2023-02-14T10:00:54.836Z,26.00
2023-02-14T10:01:54.784Z,26.01
2023-02-14T10:02:54.823Z,25.99
2023-02-14T10:03:54.882Z,26.00
2023-02-14T10:04:54.957Z,25.98
2023-02-14T10:05:55.042Z,25.98
2023-02-14T10:06:55.096Z,26.00
2023-02-14T10:07:55.153Z,25.97
2023-02-14T10:08:55.162Z,25.97
2023-02-14T10:09:55.232Z,25.98
2023-02-14T10:10:55.258Z,25.99
2023-02-14T10:11:55.330Z,25.98
2023-02-14T10:12:55.368Z,25.98
2023-02-14T10:13:55.390Z,25.95
2023-02-14T10:14:55.481Z,25.97
2023-02-14T10:15:55.553Z,25.96
2023-02-14T10:16:55.627Z,25.94
2023-02-14T10:17:55.606Z,25.93
2023-02-14T10:18:55.676Z,25.92
2023-02-14T10:19:55.741Z,25.90
2023-02-14T10:20:55.795Z,25.89
2023-02-14T10:21:55.844Z,25.85
2023-02-14T10:22:55.910Z,25.84
2023-02-14T10:23:55.902Z,25.79
2023-02-14T10:24:55.944Z,25.78
2023-02-14T10:25:55.920Z,25.73
2023-02-14T10:26:55.930Z,25.69
2023-02-14T10:27:55.937Z,25.66
2023-02-14T10:28:55.951Z,25.65
2023-02-14T10:29:56.002Z,25.61
2023-02-14T10:30:56.004Z,25.57
2023-02-14T10:31:56.110Z,25.53
2023-02-14T10:32:55.939Z,25.49
2023-02-14T10:33:57.640Z,25.45
2023-02-14T10:34:55.950Z,25.42
2023-02-14T10:35:55.926Z,25.39
2023-02-14T10:36:55.929Z,25.34
2023-02-14T10:37:55.937Z,25.29
2023-02-14T10:38:55.955Z,25.24
2023-02-14T10:39:55.932Z,25.21
2023-02-14T10:40:55.988Z,25.16
2023-02-14T10:41:55.976Z,25.13
2023-02-14T10:42:55.986Z,25.09
2023-02-14T10:43:55.943Z,25.04
2023-02-14T10:44:56.000Z,24.98
2023-02-14T10:45:56.054Z,24.93
2023-02-14T10:46:56.039Z,24.87
2023-02-14T10:47:56.035Z,24.83
2023-02-14T10:48:56.039Z,24.79
2023-02-14T10:49:56.043Z,24.74
2023-02-14T10:50:56.064Z,24.69
2023-02-14T10:51:56.037Z,24.67
2023-02-14T10:52:56.009Z,24.60
2023-02-14T10:53:56.073Z,24.57
2023-02-14T10:54:56.051Z,24.51
2023-02-14T10:55:56.081Z,24.46
2023-02-14T10:56:58.348Z,24.42
2023-02-14T10:57:56.107Z,24.37
2023-02-14T10:58:56.075Z,24.32
2023-02-14T10:59:56.122Z,24.24
2023-02-14T11:00:56.283Z,24.20
2023-02-14T11:01:56.133Z,24.12
2023-02-14T11:02:56.088Z,24.07
2023-02-14T11:03:56.192Z,23.96
2023-02-14T11:04:56.102Z,23.88
2023-02-14T11:05:56.165Z,23.82
2023-02-14T11:06:56.210Z,23.74
2023-02-14T11:07:56.243Z,23.61
2023-02-14T11:08:57.461Z,23.56
2023-02-14T11:09:56.345Z,23.48
2023-02-14T11:10:56.391Z,23.38
2023-02-14T11:11:56.456Z,23.32
2023-02-14T11:12:56.494Z,23.28
2023-02-14T11:13:56.571Z,23.23
2023-02-14T11:14:56.583Z,23.17
2023-02-14T11:15:56.680Z,23.10
2023-02-14T11:16:56.768Z,23.05
2023-02-14T11:17:56.769Z,22.95
2023-02-14T11:18:56.809Z,22.89
2023-02-14T11:19:56.873Z,22.85
2023-02-14T11:20:56.930Z,22.79
2023-02-14T11:21:56.893Z,22.75
2023-02-14T11:22:56.931Z,22.69
2023-02-14T11:23:56.962Z,22.61
2023-02-14T11:24:56.934Z,22.56
2023-02-14T11:25:56.975Z,22.52
2023-02-14T11:26:56.919Z,22.49
2023-02-14T11:27:56.926Z,22.41
2023-02-14T11:28:56.978Z,22.37
2023-02-14T11:29:57.059Z,22.32
2023-02-14T11:30:57.157Z,22.26
2023-02-14T11:31:57.192Z,22.20
2023-02-14T11:32:57.159Z,22.17
2023-02-14T11:33:57.200Z,22.10
2023-02-14T11:34:57.269Z,22.06
2023-02-14T11:35:57.332Z,22.01
2023-02-14T11:36:57.338Z,21.98
2023-02-14T11:37:57.393Z,21.96
2023-02-14T11:38:57.460Z,21.89
2023-02-14T11:39:57.522Z,21.83
2023-02-14T11:40:57.715Z,21.80
2023-02-14T11:41:57.476Z,21.76
2023-02-14T11:43:12.902Z,21.73
2023-02-14T11:43:58.472Z,21.68
2023-02-14T11:44:57.497Z,21.63
2023-02-14T11:45:57.495Z,21.59
2023-02-14T11:46:57.525Z,21.55
2023-02-14T11:47:57.466Z,21.51
2023-02-14T11:48:57.459Z,21.46
2023-02-14T11:49:57.428Z,21.45
2023-02-14T11:50:57.761Z,21.42
2023-02-14T11:51:57.475Z,21.38
2023-02-14T11:52:57.433Z,21.34
2023-02-14T11:53:57.389Z,21.30
2023-02-14T11:54:57.409Z,21.28
2023-02-14T11:55:57.410Z,21.24
2023-02-14T11:56:57.415Z,21.21
2023-02-14T11:57:57.382Z,21.17
2023-02-14T11:58:57.398Z,21.14
2023-02-14T11:59:57.374Z,21.11
2023-02-14T12:00:57.707Z,21.07
2023-02-14T12:01:57.342Z,21.05
2023-02-14T12:02:57.367Z,21.06
2023-02-14T12:03:57.391Z,21.00
2023-02-14T12:04:57.372Z,21.00
2023-02-14T12:05:57.441Z,20.98
2023-02-14T12:06:57.500Z,20.96
2023-02-14T12:07:57.525Z,20.97
2023-02-14T12:08:57.603Z,20.96
2023-02-14T12:10:00.113Z,20.94
2023-02-14T12:10:58.030Z,20.91
2023-02-14T12:11:57.796Z,20.93
2023-02-14T12:12:57.877Z,20.91
2023-02-14T12:13:57.926Z,20.89
2023-02-14T12:14:57.977Z,20.89
2023-02-14T12:15:58.022Z,20.96
2023-02-14T12:16:58.062Z,21.03
2023-02-14T12:17:58.148Z,21.04
2023-02-14T12:18:58.191Z,21.06
2023-02-14T12:19:58.198Z,21.03
2023-02-14T12:20:59.025Z,21.01
2023-02-14T12:21:58.316Z,20.98
2023-02-14T12:22:58.353Z,20.98
2023-02-14T12:23:58.430Z,21.02
2023-02-14T12:24:58.447Z,21.03
2023-02-14T12:25:58.433Z,21.06
2023-02-14T12:26:58.455Z,21.00
2023-02-14T12:27:58.448Z,20.99
2023-02-14T12:28:58.496Z,21.04
2023-02-14T12:29:58.504Z,21.06
2023-02-14T12:30:58.865Z,21.03
2023-02-14T12:31:58.627Z,21.08
2023-02-14T12:32:58.512Z,21.03
2023-02-14T12:33:58.513Z,21.06
2023-02-14T12:34:58.527Z,21.05
2023-02-14T12:35:58.517Z,21.01
2023-02-14T12:36:58.589Z,21.06
2023-02-14T12:38:04.376Z,21.16
2023-02-14T12:38:59.547Z,21.17
2023-02-14T12:39:58.553Z,21.23
2023-02-14T12:40:58.868Z,21.30
2023-02-14T12:41:58.503Z,21.33
2023-02-14T12:42:58.521Z,21.45
2023-02-14T12:43:58.588Z,21.52
2023-02-14T12:44:58.529Z,21.64
2023-02-14T12:45:58.621Z,21.86
2023-02-14T12:46:58.496Z,22.09
2023-02-14T12:47:58.515Z,22.29
2023-02-14T12:48:58.491Z,22.23
2023-02-14T12:49:58.503Z,22.39
2023-02-14T12:50:58.709Z,22.47
2023-02-14T12:51:58.502Z,22.46
2023-02-14T12:52:58.491Z,22.44
2023-02-14T12:53:58.462Z,22.49
2023-02-14T12:54:58.422Z,22.52
2023-02-14T12:55:58.444Z,22.58
2023-02-14T12:56:58.401Z,22.62
2023-02-14T12:57:58.499Z,22.99
2023-02-14T12:58:58.422Z,23.20
2023-02-14T12:59:58.427Z,23.55
2023-02-14T13:00:58.689Z,23.90
2023-02-14T13:01:58.414Z,24.24
2023-02-14T13:02:58.429Z,24.80
2023-02-14T13:03:58.414Z,26.18
2023-02-14T13:04:58.427Z,27.81
2023-02-14T13:05:58.434Z,28.74
2023-02-14T13:06:58.479Z,29.75
2023-02-14T13:07:58.483Z,30.62
2023-02-14T13:08:58.538Z,31.40
2023-02-14T13:09:59.385Z,32.07
2023-02-14T13:10:58.807Z,32.75
2023-02-14T13:11:58.636Z,33.46
2023-02-14T13:12:58.652Z,33.94
2023-02-14T13:13:58.711Z,34.59
2023-02-14T13:14:58.806Z,35.08
2023-02-14T13:15:58.860Z,35.58
2023-02-14T13:16:58.980Z,35.98
2023-02-14T13:17:58.937Z,36.47
2023-02-14T13:18:59.041Z,37.04
2023-02-14T13:19:59.049Z,37.35
2023-02-14T13:20:59.578Z,37.74
2023-02-14T13:21:59.916Z,37.66
2023-02-14T13:22:59.174Z,38.08
2023-02-14T13:23:59.228Z,38.53
2023-02-14T13:24:59.230Z,39.02
2023-02-14T13:25:59.275Z,39.17
2023-02-14T13:26:59.353Z,39.50
2023-02-14T13:27:59.356Z,39.89
2023-02-14T13:28:59.392Z,40.21
2023-02-14T13:29:59.488Z,40.47
2023-02-14T13:31:00.048Z,40.72
2023-02-14T13:31:59.563Z,40.92
2023-02-14T13:32:59.549Z,41.07
2023-02-14T13:33:59.595Z,41.28
2023-02-14T13:34:59.634Z,41.45
2023-02-14T13:36:00.151Z,41.62
2023-02-14T13:36:59.705Z,41.89
2023-02-14T13:37:59.776Z,42.13
2023-02-14T13:38:59.846Z,42.44
2023-02-14T13:39:59.847Z,42.46
2023-02-14T13:41:00.332Z,42.58
2023-02-14T13:41:59.922Z,42.66
2023-02-14T13:42:59.965Z,42.83
2023-02-14T13:43:59.990Z,42.95
2023-02-14T13:45:00.089Z,43.18
2023-02-14T13:46:00.094Z,43.40
2023-02-14T13:47:00.237Z,43.58
2023-02-14T13:48:00.161Z,43.75
2023-02-14T13:49:00.196Z,43.59
2023-02-14T13:50:00.207Z,43.66
2023-02-14T13:51:00.704Z,43.78
2023-02-14T13:52:00.275Z,44.02
2023-02-14T13:53:00.340Z,44.17
2023-02-14T13:54:00.473Z,44.29
2023-02-14T13:55:00.384Z,44.44
2023-02-14T13:56:00.746Z,44.70
2023-02-14T13:57:00.477Z,44.79
2023-02-14T13:58:00.456Z,44.84
2023-02-14T13:59:00.589Z,44.93
2023-02-14T14:00:00.543Z,45.16
2023-02-14T14:01:00.634Z,45.30
2023-02-14T14:02:00.562Z,45.37
2023-02-14T14:03:00.624Z,45.51
2023-02-14T14:04:00.707Z,45.71
2023-02-14T14:05:00.648Z,45.91
2023-02-14T14:06:01.043Z,46.01
2023-02-14T14:07:00.756Z,46.05
2023-02-14T14:08:00.793Z,46.11
2023-02-14T14:09:00.778Z,46.20
2023-02-14T14:10:00.814Z,46.29
2023-02-14T14:11:00.889Z,46.34
2023-02-14T14:12:00.877Z,46.44
2023-02-14T14:13:00.905Z,46.57
2023-02-14T14:14:00.937Z,46.64
2023-02-14T14:15:00.946Z,46.75
2023-02-14T14:16:01.404Z,46.85
2023-02-14T14:17:01.061Z,46.99
2023-02-14T14:18:01.040Z,47.09
2023-02-14T14:19:01.100Z,47.15
2023-02-14T14:20:01.132Z,47.16
2023-02-14T14:21:01.147Z,47.23
2023-02-14T14:22:01.185Z,47.37
2023-02-14T14:37:01.996Z,48.08
2023-02-14T14:39:02.037Z,48.15
2023-02-14T14:40:02.084Z,48.19
2023-02-14T14:41:02.165Z,48.26
2023-02-14T14:42:02.131Z,48.27
2023-02-14T14:43:02.190Z,48.33
2023-02-14T14:44:02.192Z,48.32
2023-02-14T14:45:02.224Z,48.35
2023-02-14T14:46:02.776Z,48.34
2023-02-14T14:47:02.345Z,48.38
2023-02-14T14:48:02.410Z,48.42
2023-02-14T14:49:02.460Z,48.40
2023-02-14T14:50:02.541Z,48.45
2023-02-14T15:19:03.318Z,49.52
2023-02-14T15:20:03.323Z,49.53
2023-02-14T15:21:03.552Z,49.52
2023-02-14T15:22:03.340Z,49.56
2023-02-14T15:25:03.437Z,49.50
2023-02-14T15:26:03.446Z,49.50
2023-02-14T15:27:03.452Z,49.48
2023-02-14T15:28:03.470Z,49.43
2023-02-14T15:29:03.490Z,49.41
2023-02-14T15:30:03.583Z,49.47
2023-02-14T15:31:04.151Z,49.49
2023-02-14T15:32:03.925Z,49.52
2023-02-14T15:33:03.732Z,49.55
2023-02-14T15:34:03.803Z,49.58
2023-02-14T15:35:03.875Z,49.62
2023-02-14T15:36:03.917Z,49.63
2023-02-14T15:37:03.993Z,49.71
2023-02-14T15:38:04.041Z,49.70
2023-02-14T15:39:04.145Z,49.78
2023-02-14T15:40:04.148Z,49.82
2023-02-14T15:41:04.201Z,49.84
2023-02-14T15:42:04.316Z,49.90
2023-02-14T15:43:04.374Z,49.95
2023-02-14T15:44:04.418Z,50.00
2023-02-14T15:45:04.452Z,50.03
2023-02-14T15:46:04.595Z,50.07
2023-02-14T15:47:04.613Z,50.11
2023-02-14T15:48:04.650Z,50.12
2023-02-14T15:49:04.726Z,50.16
2023-02-14T15:50:04.783Z,50.18
2023-02-14T15:51:04.853Z,50.22
2023-02-14T15:52:04.880Z,50.26
2023-02-14T15:53:04.916Z,50.27
2023-02-14T15:54:04.963Z,50.28
2023-02-14T15:55:05.024Z,50.36
2023-02-14T15:56:05.126Z,50.36
2023-02-14T15:57:05.178Z,50.40
2023-02-14T15:58:05.195Z,50.43
2023-02-14T15:59:05.253Z,50.41
2023-02-14T16:00:05.251Z,50.46
2023-02-14T16:01:05.369Z,50.52
2023-02-14T16:02:05.384Z,50.54
2023-02-14T16:03:05.344Z,50.57
2023-02-14T16:04:05.365Z,50.57
2023-02-14T16:05:05.449Z,50.62
2023-02-14T16:06:05.445Z,50.67
2023-02-14T16:07:05.519Z,50.76
2023-02-14T16:08:05.559Z,50.75
2023-02-14T16:09:05.595Z,50.82
2023-02-14T16:10:05.639Z,50.83
2023-02-14T16:11:05.672Z,50.86
2023-02-14T16:12:05.735Z,50.92
2023-02-14T16:13:05.816Z,50.93
2023-02-14T16:14:05.843Z,50.96
2023-02-14T16:15:05.850Z,51.01
2023-02-14T16:16:05.952Z,51.03
2023-02-14T16:17:05.979Z,51.07
2023-02-14T16:18:08.201Z,51.06
2023-02-14T16:19:06.053Z,51.11
2023-02-14T16:20:06.142Z,51.13
2023-02-14T16:21:06.201Z,51.14
2023-02-14T16:22:06.252Z,51.19
2023-02-14T16:23:06.301Z,51.24
2023-02-14T16:24:06.288Z,51.27
2023-02-14T16:25:06.341Z,51.30
2023-02-14T16:26:06.379Z,51.33
2023-02-14T16:27:06.374Z,51.36
2023-02-14T16:28:06.386Z,51.41
2023-02-14T16:29:06.438Z,51.40
2023-02-14T16:30:06.554Z,51.46
2023-02-14T16:31:06.598Z,51.56
2023-02-14T16:32:15.816Z,51.60
2023-02-14T16:33:07.561Z,51.58
2023-02-14T16:34:06.549Z,51.61
2023-02-14T16:35:06.504Z,51.65
2023-02-14T16:36:06.629Z,51.65
2023-02-14T16:37:06.503Z,51.69
2023-02-14T16:38:06.494Z,51.72
2023-02-14T16:39:06.491Z,51.74
2023-02-14T16:40:06.503Z,51.76
2023-02-14T16:41:06.480Z,51.76
2023-02-14T16:42:06.483Z,51.80
2023-02-14T16:43:06.464Z,51.86
2023-02-14T16:44:06.457Z,51.86
2023-02-14T16:45:06.458Z,51.90
2023-02-14T16:46:06.514Z,51.93
2023-02-14T16:47:06.475Z,51.91
2023-02-14T16:48:06.487Z,51.97
2023-02-14T16:49:06.537Z,51.98
2023-02-14T16:50:06.535Z,52.02
2023-02-14T16:51:06.614Z,52.04
2023-02-14T16:52:06.674Z,52.01
2023-02-14T16:53:06.659Z,52.03
2023-02-14T16:54:06.718Z,52.02
2023-02-14T16:55:06.734Z,52.05
2023-02-14T16:56:06.748Z,52.03
2023-02-14T16:57:06.751Z,52.07
2023-02-14T16:58:06.722Z,52.10
2023-02-14T16:59:06.751Z,52.08
2023-02-14T17:00:06.740Z,52.09
2023-02-14T17:01:06.711Z,52.11
2023-02-14T17:02:06.727Z,52.14
2023-02-14T17:03:06.840Z,52.14
2023-02-14T17:04:06.737Z,52.18
2023-02-14T17:05:06.738Z,52.16
2023-02-14T17:06:06.756Z,52.15
2023-02-14T17:07:06.746Z,52.19
2023-02-14T17:08:06.757Z,52.21
2023-02-14T17:09:06.810Z,52.19
2023-02-14T17:10:06.792Z,52.24
2023-02-14T17:11:06.743Z,52.26
2023-02-14T17:12:06.747Z,52.25
2023-02-14T17:13:06.766Z,52.26
2023-02-14T17:14:06.768Z,52.24
2023-02-14T17:15:06.733Z,52.29
2023-02-14T17:16:06.790Z,52.29
2023-02-14T17:17:06.795Z,52.27
2023-02-14T17:18:06.751Z,52.27
2023-02-14T17:19:06.765Z,52.27
2023-02-14T17:20:06.781Z,52.30
2023-02-14T17:21:06.792Z,52.35
2023-02-14T17:22:06.785Z,52.33
2023-02-14T17:23:06.763Z,52.35
2023-02-14T17:24:06.761Z,52.36
2023-02-14T17:25:06.779Z,52.34
2023-02-14T17:26:06.781Z,52.33
2023-02-14T17:27:06.758Z,52.33
2023-02-14T17:28:06.745Z,52.38
2023-02-14T17:29:06.812Z,52.37
2023-02-14T17:30:06.774Z,52.36
2023-02-14T17:31:07.231Z,52.38
2023-02-14T17:32:06.832Z,52.38
2023-02-14T17:33:06.770Z,52.39
2023-02-14T17:34:06.751Z,52.40
2023-02-14T17:35:06.865Z,52.43
2023-02-14T17:36:06.820Z,52.44
2023-02-14T17:37:06.858Z,52.44
2023-02-14T17:38:06.889Z,52.43
2023-02-14T17:39:06.963Z,52.48
2023-02-14T17:40:06.986Z,52.48
2023-02-14T17:41:07.024Z,52.51